Flight Briefing for CPX954

Departure Arrival
Patrick Air Force Base (KCOF)
Click to view FAA NOTAMS
Miami International Airport (KMIA)
Click to view FAA NOTAMS
Departure Time Arrival Time
N/A N/A
Aircraft Distance
B757-200SF 147nm
Departure METAR Arrival METAR
KCOF 252256Z AUTO 16010KT 10SM CLR 24/19 A3001 RMK AO2 SLP167 T02350192 $ KMIA 252253Z 12010KT 10SM FEW025 FEW042 FEW250 25/19 A3002 RMK AO2 SLP164 T02500194
Suggested Route
MLB BLUFI4


View recent IFR Routes data
Notes
EMPTY | NON-REVENUE REPOSITIONING LEG | VFR DEPARTURE RCMD IF WX PERMITS

Charts and Procedures

Charts for KCOF
No chart available
Charts for KMIA
No chart available

Windy.com Weather Map